createdAt,value
2022-12-24T00:01:03.968Z,1.85
2022-12-24T00:03:31.393Z,1.63
2022-12-24T00:05:58.712Z,1.42
2022-12-24T00:08:26.122Z,1.80
2022-12-24T00:10:53.953Z,2.00
2022-12-24T00:13:21.250Z,1.70
2022-12-24T00:15:48.867Z,1.55
2022-12-24T00:18:16.079Z,1.60
2022-12-24T00:20:45.987Z,1.60
2022-12-24T00:23:13.093Z,1.90
2022-12-24T00:25:40.207Z,1.65
2022-12-24T00:28:07.282Z,1.50
2022-12-24T00:30:34.426Z,1.52
2022-12-24T00:33:01.559Z,1.80
2022-12-24T00:35:29.561Z,1.60
2022-12-24T00:37:56.741Z,1.40
2022-12-24T00:40:23.862Z,1.40
2022-12-24T00:42:50.959Z,1.95
2022-12-24T00:45:18.139Z,2.28
2022-12-24T00:47:45.404Z,1.48
2022-12-24T00:50:12.797Z,1.50
2022-12-24T00:52:39.908Z,1.60
2022-12-24T00:55:07.188Z,1.80
2022-12-24T00:57:34.376Z,1.70
2022-12-24T01:00:02.036Z,1.70
2022-12-24T01:02:29.521Z,1.73
2022-12-24T01:05:12.339Z,1.20
2022-12-24T01:07:40.759Z,1.40
2022-12-24T01:10:09.276Z,1.40
2022-12-24T01:12:36.633Z,1.30
2022-12-24T01:15:04.982Z,1.05
2022-12-24T01:17:33.423Z,1.50
2022-12-24T01:20:00.554Z,1.60
2022-12-24T01:22:27.939Z,1.50
2022-12-24T01:24:55.055Z,1.52
2022-12-24T01:27:23.597Z,1.40
2022-12-24T01:29:50.737Z,1.60
2022-12-24T01:32:17.849Z,1.40
2022-12-24T01:34:44.998Z,1.52
2022-12-24T01:37:12.084Z,1.70
2022-12-24T01:39:39.183Z,1.20
2022-12-24T01:42:42.252Z,1.63
2022-12-24T01:45:28.008Z,1.73
2022-12-24T01:47:55.143Z,1.52
2022-12-24T01:50:22.311Z,1.55
2022-12-24T01:52:49.558Z,1.38
2022-12-24T01:55:17.836Z,1.25
2022-12-24T01:57:50.461Z,1.40
2022-12-24T02:00:17.757Z,1.20
2022-12-24T02:02:45.943Z,1.17
2022-12-24T02:05:15.976Z,1.40
2022-12-24T02:07:43.896Z,1.35
2022-12-24T02:10:12.963Z,1.42
2022-12-24T02:12:41.436Z,1.00
2022-12-24T02:15:10.107Z,1.02
2022-12-24T02:17:46.457Z,1.20
2022-12-24T02:20:31.935Z,1.58
2022-12-24T02:23:08.223Z,2.05
2022-12-24T02:25:38.134Z,1.60
2022-12-24T02:28:21.844Z,1.30
2022-12-24T02:30:54.847Z,1.40
2022-12-24T02:33:31.132Z,1.30
2022-12-24T02:36:03.086Z,1.83
2022-12-24T02:38:33.205Z,1.23
2022-12-24T02:41:05.794Z,1.23
2022-12-24T02:43:41.422Z,1.48
2022-12-24T02:46:16.772Z,1.13
2022-12-24T02:48:45.579Z,1.08
2022-12-24T02:51:13.012Z,1.05
2022-12-24T02:53:40.473Z,1.55
2022-12-24T02:56:13.652Z,1.20
2022-12-24T02:58:52.778Z,1.30
2022-12-24T03:01:26.084Z,1.30
2022-12-24T03:04:01.572Z,1.20
2022-12-24T03:06:47.546Z,1.10
2022-12-24T03:09:21.651Z,1.23
2022-12-24T03:11:56.084Z,1.40
2022-12-24T03:14:24.137Z,1.60
2022-12-24T03:16:51.392Z,1.20
2022-12-24T03:19:18.913Z,1.40
2022-12-24T03:21:46.733Z,1.27
2022-12-24T03:24:14.022Z,1.27
2022-12-24T03:26:41.381Z,1.30
2022-12-24T03:29:09.061Z,1.20
2022-12-24T03:31:46.579Z,1.35
2022-12-24T03:34:14.556Z,1.30
2022-12-24T03:36:42.301Z,1.65
2022-12-24T03:39:10.052Z,1.40
2022-12-24T03:41:37.976Z,1.30
2022-12-24T03:44:05.100Z,1.10
2022-12-24T03:46:32.413Z,1.30
2022-12-24T03:48:59.550Z,1.15
2022-12-24T03:51:26.776Z,1.40
2022-12-24T03:53:54.178Z,1.45
2022-12-24T03:56:21.540Z,0.95
2022-12-24T03:58:49.271Z,1.40
2022-12-24T04:01:17.132Z,1.20
2022-12-24T04:03:44.812Z,1.15
2022-12-24T04:06:15.997Z,1.10
2022-12-24T04:08:43.093Z,1.08
2022-12-24T04:11:11.707Z,1.33
2022-12-24T04:13:38.857Z,1.08
2022-12-24T04:16:07.820Z,1.20
2022-12-24T04:21:02.176Z,1.20
2022-12-24T04:23:31.692Z,1.60
2022-12-24T04:26:02.415Z,1.30
2022-12-24T04:28:29.993Z,1.33
2022-12-24T04:31:01.072Z,1.60
2022-12-24T04:33:29.753Z,1.85
2022-12-24T04:36:00.197Z,1.17
2022-12-24T04:38:27.789Z,1.67
2022-12-24T04:41:01.737Z,1.55
2022-12-24T04:43:29.451Z,1.67
2022-12-24T04:45:56.685Z,1.17
2022-12-24T04:48:25.323Z,1.10
2022-12-24T04:50:52.419Z,1.30
2022-12-24T04:53:19.499Z,1.27
2022-12-24T04:55:47.119Z,1.00
2022-12-24T04:58:14.501Z,1.13
2022-12-24T05:00:41.874Z,1.23
2022-12-24T05:03:09.335Z,1.63
2022-12-24T05:05:36.646Z,0.95
2022-12-24T05:08:03.872Z,1.17
2022-12-24T05:10:31.064Z,1.08
2022-12-24T05:12:58.203Z,1.25
2022-12-24T05:15:25.295Z,1.42
2022-12-24T05:17:52.426Z,1.30
2022-12-24T05:20:19.623Z,1.10
2022-12-24T05:23:05.462Z,1.00
2022-12-24T05:25:53.471Z,2.08
2022-12-24T05:28:20.600Z,1.20
2022-12-24T05:30:47.709Z,1.52
2022-12-24T05:33:14.987Z,1.00
2022-12-24T05:35:42.149Z,1.25
2022-12-24T05:38:09.217Z,1.20
2022-12-24T05:40:36.291Z,1.17
2022-12-24T05:43:03.384Z,1.30
2022-12-24T05:45:30.462Z,1.05
2022-12-24T05:47:57.617Z,1.00
2022-12-24T05:50:24.734Z,1.23
2022-12-24T05:52:51.813Z,1.30
2022-12-24T05:55:19.063Z,1.20
2022-12-24T05:57:46.158Z,1.02
2022-12-24T06:00:13.485Z,1.23
2022-12-24T06:02:40.780Z,1.20
2022-12-24T06:05:08.157Z,1.20
2022-12-24T06:07:35.381Z,0.82
2022-12-24T06:10:02.506Z,1.48
2022-12-24T06:12:29.582Z,1.20
2022-12-24T06:14:56.708Z,1.20
2022-12-24T06:17:23.808Z,1.10
2022-12-24T06:19:51.050Z,0.98
2022-12-24T06:22:18.183Z,1.25
2022-12-24T06:24:45.417Z,1.13
2022-12-24T06:27:15.480Z,1.25
2022-12-24T06:29:42.588Z,0.90
2022-12-24T06:32:09.708Z,1.35
2022-12-24T06:34:36.782Z,1.30
2022-12-24T06:37:04.100Z,1.35
2022-12-24T06:39:31.223Z,1.20
2022-12-24T06:41:58.512Z,1.20
2022-12-24T06:44:26.468Z,0.98
2022-12-24T06:46:53.612Z,1.48
2022-12-24T06:49:20.903Z,1.08
2022-12-24T06:51:48.301Z,1.20
2022-12-24T06:54:15.415Z,1.05
2022-12-24T06:56:42.590Z,1.55
2022-12-24T06:59:09.814Z,1.58
2022-12-24T07:01:37.053Z,1.52
2022-12-24T07:04:04.470Z,1.25
2022-12-24T07:06:32.016Z,1.23
2022-12-24T07:08:59.197Z,1.17
2022-12-24T07:11:26.636Z,1.30
2022-12-24T07:13:53.953Z,1.30
2022-12-24T07:16:21.678Z,1.05
2022-12-24T07:18:48.999Z,1.55
2022-12-24T07:21:16.180Z,1.30
2022-12-24T07:23:43.280Z,1.38
2022-12-24T07:26:11.333Z,1.63
2022-12-24T07:28:38.583Z,1.30
2022-12-24T07:31:05.898Z,1.75
2022-12-24T07:33:33.125Z,1.25
2022-12-24T07:36:05.585Z,1.17
2022-12-24T07:38:33.167Z,1.15
2022-12-24T07:41:00.654Z,1.42
2022-12-24T07:43:28.535Z,1.45
2022-12-24T07:45:56.812Z,1.17
2022-12-24T07:48:24.397Z,1.52
2022-12-24T07:50:52.059Z,1.60
2022-12-24T07:53:19.577Z,1.27
2022-12-24T07:55:46.976Z,1.30
2022-12-24T07:58:14.389Z,1.08
2022-12-24T08:00:41.498Z,1.23
2022-12-24T08:03:08.777Z,1.70
2022-12-24T08:05:36.794Z,1.23
2022-12-24T08:08:04.029Z,1.40
2022-12-24T08:10:31.119Z,1.30
2022-12-24T08:12:58.287Z,1.13
2022-12-24T08:15:25.467Z,1.55
2022-12-24T08:17:52.592Z,1.10
2022-12-24T08:20:19.777Z,1.20
2022-12-24T08:22:46.928Z,1.58
2022-12-24T08:25:14.142Z,1.10
2022-12-24T08:27:41.318Z,1.17
2022-12-24T08:30:08.765Z,1.20
2022-12-24T08:32:35.984Z,1.33
2022-12-24T08:35:03.143Z,1.23
2022-12-24T08:37:30.261Z,1.20
2022-12-24T08:39:57.608Z,1.30
2022-12-24T08:42:24.751Z,1.10
2022-12-24T08:44:51.878Z,1.00
2022-12-24T08:47:18.976Z,1.58
2022-12-24T08:49:46.125Z,1.35
2022-12-24T08:52:13.248Z,2.17
2022-12-24T08:54:40.360Z,1.65
2022-12-24T08:57:07.464Z,1.40
2022-12-24T08:59:34.575Z,1.30
2022-12-24T09:02:02.698Z,1.00
2022-12-24T09:04:30.093Z,1.00
2022-12-24T09:06:57.218Z,1.27
2022-12-24T09:09:24.587Z,1.10
2022-12-24T09:11:51.867Z,1.27
2022-12-24T09:14:19.093Z,1.55
2022-12-24T09:16:46.246Z,1.42
2022-12-24T09:19:13.457Z,1.08
2022-12-24T09:21:40.574Z,1.00
2022-12-24T09:24:07.848Z,1.05
2022-12-24T09:26:36.553Z,1.40
2022-12-24T09:29:04.249Z,1.05
2022-12-24T09:31:31.500Z,1.20
2022-12-24T09:33:58.652Z,1.33
2022-12-24T09:36:25.864Z,1.10
2022-12-24T09:38:53.116Z,1.40
2022-12-24T09:41:23.103Z,1.30
2022-12-24T09:43:55.047Z,1.25
2022-12-24T09:46:35.056Z,1.38
2022-12-24T09:49:06.730Z,1.15
2022-12-24T09:51:40.341Z,1.23
2022-12-24T09:54:22.800Z,1.90
2022-12-24T09:56:50.367Z,1.67
2022-12-24T09:59:20.604Z,1.35
2022-12-24T10:01:48.162Z,1.40
2022-12-24T10:04:16.603Z,1.40
2022-12-24T10:06:50.800Z,1.30
2022-12-24T10:09:27.576Z,1.40
2022-12-24T10:12:13.515Z,1.02
2022-12-24T10:14:40.621Z,1.27
2022-12-24T10:17:27.340Z,1.75
2022-12-24T10:20:17.635Z,1.55
2022-12-24T10:22:44.682Z,1.33
2022-12-24T10:25:23.924Z,1.25
2022-12-24T10:27:52.112Z,1.75
2022-12-24T10:30:20.861Z,1.38
2022-12-24T10:32:48.767Z,1.25
2022-12-24T10:35:15.915Z,1.58
2022-12-24T10:37:47.682Z,1.55
2022-12-24T10:40:16.869Z,1.13
2022-12-24T10:42:50.580Z,1.05
2022-12-24T10:45:21.370Z,1.90
2022-12-24T10:47:50.421Z,1.50
2022-12-24T10:50:29.011Z,1.50
2022-12-24T10:52:58.998Z,1.55
2022-12-24T10:55:28.159Z,1.75
2022-12-24T10:58:13.439Z,1.52
2022-12-24T11:00:41.297Z,1.58
2022-12-24T11:03:14.866Z,1.52
2022-12-24T11:05:42.055Z,1.88
2022-12-24T11:08:17.357Z,1.33
2022-12-24T11:10:59.727Z,1.42
2022-12-24T11:13:45.405Z,1.10
2022-12-24T11:16:16.175Z,1.55
2022-12-24T11:19:03.136Z,1.50
2022-12-24T11:21:34.414Z,1.00
2022-12-24T11:24:07.520Z,1.50
2022-12-24T11:26:34.729Z,1.27
2022-12-24T11:29:07.740Z,1.60
2022-12-24T11:31:37.486Z,1.27
2022-12-24T11:34:19.948Z,1.13
2022-12-24T11:36:48.269Z,1.17
2022-12-24T11:39:20.254Z,1.25
2022-12-24T11:41:47.391Z,1.63
2022-12-24T11:44:14.617Z,1.90
2022-12-24T11:46:46.282Z,1.33
2022-12-24T11:49:13.475Z,1.23
2022-12-24T11:51:41.439Z,1.20
2022-12-24T11:54:19.761Z,1.50
2022-12-24T11:56:49.697Z,1.42
2022-12-24T11:59:22.280Z,1.38
2022-12-24T12:01:53.693Z,1.27
2022-12-24T12:04:26.555Z,1.17
2022-12-24T12:06:56.789Z,1.50
2022-12-24T12:09:26.483Z,1.20
2022-12-24T12:12:00.268Z,1.50
2022-12-24T12:14:36.294Z,1.10
2022-12-24T12:17:07.720Z,1.42
2022-12-24T12:19:38.537Z,1.42
2022-12-24T12:22:07.756Z,1.40
2022-12-24T12:24:37.658Z,1.30
2022-12-24T12:27:20.121Z,1.50
2022-12-24T12:29:50.696Z,1.25
2022-12-24T12:32:25.409Z,1.67
2022-12-24T12:35:05.340Z,1.17
2022-12-24T12:37:55.919Z,1.42
2022-12-24T12:40:25.957Z,1.35
2022-12-24T12:43:16.051Z,1.20
2022-12-24T12:46:01.353Z,1.90
2022-12-24T12:48:40.289Z,1.15
2022-12-24T12:51:09.779Z,1.33
2022-12-24T12:53:57.339Z,2.65
2022-12-24T12:56:33.381Z,1.60
2022-12-24T12:59:05.543Z,2.20
2022-12-24T13:01:38.613Z,2.00
2022-12-24T13:04:19.337Z,2.58
2022-12-24T13:07:04.878Z,2.65
2022-12-24T13:09:42.028Z,2.33
2022-12-24T13:12:21.357Z,2.45
2022-12-24T13:15:07.582Z,3.00
2022-12-24T13:17:52.976Z,2.80
2022-12-24T13:20:32.222Z,2.53
2022-12-24T13:23:12.067Z,2.13
2022-12-24T13:25:40.995Z,2.22
2022-12-24T13:30:36.870Z,2.30
2022-12-24T13:33:04.481Z,2.35
2022-12-24T13:35:37.455Z,2.42
2022-12-24T13:38:31.118Z,2.50
2022-12-24T13:41:18.310Z,2.40
2022-12-24T13:44:03.992Z,3.00
2022-12-24T13:46:51.584Z,2.40
2022-12-24T13:49:18.688Z,2.40
2022-12-24T13:51:46.395Z,2.03
2022-12-24T13:54:14.546Z,2.50
2022-12-24T13:56:42.647Z,2.53
2022-12-24T13:59:23.370Z,2.58
2022-12-24T14:01:50.769Z,2.45
2022-12-24T14:04:27.144Z,2.38
2022-12-24T14:06:55.053Z,1.92
2022-12-24T14:09:24.970Z,2.33
2022-12-24T14:11:57.650Z,2.22
2022-12-24T14:14:28.075Z,2.20
2022-12-24T14:16:57.301Z,2.00
2022-12-24T14:19:26.165Z,2.15
2022-12-24T14:21:59.757Z,2.20
2022-12-24T14:24:28.726Z,2.10
2022-12-24T14:29:27.049Z,2.17
2022-12-24T14:31:54.828Z,2.30
2022-12-24T14:34:22.674Z,2.30
2022-12-24T14:36:50.905Z,2.08
2022-12-24T14:39:37.630Z,1.95
2022-12-24T14:42:10.845Z,1.98
2022-12-24T14:44:37.945Z,2.55
2022-12-24T14:47:16.929Z,2.58
2022-12-24T14:49:57.408Z,2.30
2022-12-24T14:53:03.364Z,1.77
2022-12-24T14:55:47.954Z,1.75
2022-12-24T14:58:28.910Z,2.15
2022-12-24T15:01:00.207Z,2.03
2022-12-24T15:03:31.782Z,1.98
2022-12-24T15:06:04.362Z,1.98
2022-12-24T15:08:38.679Z,2.00
2022-12-24T15:11:07.859Z,2.00
2022-12-24T15:13:39.126Z,2.10
2022-12-24T15:16:08.709Z,1.70
2022-12-24T15:18:37.424Z,2.53
2022-12-24T15:21:05.966Z,2.00
2022-12-24T15:23:34.627Z,1.58
2022-12-24T15:26:08.720Z,1.63
2022-12-24T15:28:37.985Z,2.00
2022-12-24T15:31:08.626Z,1.80
2022-12-24T15:33:37.308Z,2.47
2022-12-24T15:36:04.927Z,2.45
2022-12-24T15:38:34.084Z,2.00
2022-12-24T15:41:03.160Z,1.85
2022-12-24T15:43:31.055Z,2.03
2022-12-24T15:45:58.469Z,2.22
2022-12-24T15:48:27.135Z,1.95
2022-12-24T15:50:57.251Z,2.15
2022-12-24T15:53:30.430Z,1.75
2022-12-24T15:56:05.519Z,2.10
2022-12-24T16:01:01.855Z,1.88
2022-12-24T16:03:29.387Z,2.42
2022-12-24T16:06:00.444Z,1.90
2022-12-24T16:08:29.912Z,2.33
2022-12-24T16:11:06.182Z,1.92
2022-12-24T16:13:35.708Z,1.98
2022-12-24T16:16:06.761Z,2.40
2022-12-24T16:18:35.862Z,2.17
2022-12-24T16:21:03.499Z,2.40
2022-12-24T16:23:35.504Z,1.90
2022-12-24T16:26:02.716Z,1.92
2022-12-24T16:28:29.844Z,2.13
2022-12-24T16:30:57.122Z,1.95
2022-12-24T16:33:24.454Z,2.10
2022-12-24T16:35:51.674Z,2.20
2022-12-24T16:38:18.824Z,2.90
2022-12-24T16:40:45.956Z,2.72
2022-12-24T16:43:32.555Z,1.95
2022-12-24T16:46:03.770Z,1.95
2022-12-24T16:48:31.054Z,2.67
2022-12-24T16:50:58.230Z,2.50
2022-12-24T16:53:25.486Z,2.00
2022-12-24T16:55:53.398Z,2.25
2022-12-24T16:58:21.024Z,2.20
2022-12-24T17:00:48.476Z,2.05
2022-12-24T17:03:15.761Z,2.10
2022-12-24T17:05:43.947Z,2.42
2022-12-24T17:08:11.446Z,2.38
2022-12-24T17:10:38.619Z,2.15
2022-12-24T17:13:06.434Z,1.83
2022-12-24T17:15:33.615Z,1.88
2022-12-24T17:18:00.792Z,2.28
2022-12-24T17:20:27.942Z,2.10
2022-12-24T17:22:55.163Z,2.05
2022-12-24T17:25:22.342Z,2.95
2022-12-24T17:27:49.540Z,2.10
2022-12-24T17:30:16.874Z,2.15
2022-12-24T17:32:44.255Z,2.13
2022-12-24T17:35:11.501Z,2.05
2022-12-24T17:37:38.739Z,1.90
2022-12-24T17:40:06.207Z,2.40
2022-12-24T17:42:33.467Z,1.83
2022-12-24T17:45:00.982Z,2.22
2022-12-24T17:47:28.241Z,2.20
2022-12-24T17:49:55.534Z,1.90
2022-12-24T17:52:22.652Z,2.28
2022-12-24T17:54:49.828Z,2.13
2022-12-24T17:57:16.983Z,2.22
2022-12-24T17:59:44.061Z,2.10
2022-12-24T18:02:12.810Z,2.42
2022-12-24T18:04:40.125Z,2.30
2022-12-24T18:07:07.276Z,2.13
2022-12-24T18:09:34.486Z,2.38
2022-12-24T18:12:01.576Z,2.50
2022-12-24T18:14:28.874Z,2.20
2022-12-24T18:16:56.037Z,2.63
2022-12-24T18:19:23.195Z,2.60
2022-12-24T18:21:50.294Z,2.22
2022-12-24T18:24:17.496Z,2.60
2022-12-24T18:26:45.771Z,2.45
2022-12-24T18:29:13.243Z,2.75
2022-12-24T18:31:40.535Z,2.00
2022-12-24T18:34:09.042Z,2.00
2022-12-24T18:36:36.684Z,2.40
2022-12-24T18:39:04.683Z,2.30
2022-12-24T18:41:32.032Z,2.42
2022-12-24T18:43:59.652Z,3.15
2022-12-24T18:46:28.495Z,2.25
2022-12-24T18:51:23.703Z,2.90
2022-12-24T18:53:51.312Z,2.72
2022-12-24T18:56:22.774Z,2.45
2022-12-24T18:58:52.582Z,3.15
2022-12-24T19:01:21.721Z,3.22
2022-12-24T19:03:49.562Z,3.08
2022-12-24T19:06:17.583Z,2.97
2022-12-24T19:09:01.533Z,2.97
2022-12-24T19:11:30.435Z,2.97
2022-12-24T19:14:00.683Z,3.40
2022-12-24T19:16:28.220Z,3.38
2022-12-24T19:18:55.763Z,3.00
2022-12-24T19:21:22.953Z,3.33
2022-12-24T19:23:50.534Z,3.90
2022-12-24T19:26:17.926Z,3.55
2022-12-24T19:28:45.631Z,3.30
2022-12-24T19:31:13.933Z,2.95
2022-12-24T19:33:45.497Z,3.15
2022-12-24T19:36:14.615Z,3.42
2022-12-24T19:38:42.203Z,3.38
2022-12-24T19:41:10.990Z,3.42
2022-12-24T19:43:39.017Z,3.08
2022-12-24T19:46:06.427Z,3.15
2022-12-24T19:48:33.612Z,3.88
2022-12-24T19:51:01.682Z,3.30
2022-12-24T19:53:28.831Z,3.22
2022-12-24T19:55:56.010Z,3.58
2022-12-24T19:58:23.349Z,3.20
2022-12-24T20:00:50.501Z,3.63
2022-12-24T20:03:17.797Z,3.25
2022-12-24T20:05:45.339Z,3.28
2022-12-24T20:08:12.687Z,3.40
2022-12-24T20:10:40.629Z,3.40
2022-12-24T20:13:07.974Z,3.15
2022-12-24T20:15:42.160Z,3.72
2022-12-24T20:18:09.628Z,3.28
2022-12-24T20:20:37.095Z,3.28
2022-12-24T20:23:04.643Z,3.83
2022-12-24T20:25:34.517Z,3.30
2022-12-24T20:28:01.661Z,4.07
2022-12-24T20:30:28.759Z,3.45
2022-12-24T20:32:56.266Z,3.25
2022-12-24T20:35:24.597Z,3.25
2022-12-24T20:37:51.783Z,3.20
2022-12-24T20:40:18.934Z,3.35
2022-12-24T20:42:46.068Z,3.30
2022-12-24T20:45:13.217Z,3.08
2022-12-24T20:47:40.805Z,3.00
2022-12-24T20:50:08.580Z,3.65
2022-12-24T20:52:35.769Z,3.15
2022-12-24T20:55:02.922Z,3.70
2022-12-24T20:57:35.882Z,2.92
2022-12-24T21:00:03.742Z,3.28
2022-12-24T21:02:30.970Z,3.20
2022-12-24T21:05:02.297Z,2.67
2022-12-24T21:07:30.029Z,3.17
2022-12-24T21:09:57.336Z,3.58
2022-12-24T21:12:43.413Z,3.15
2022-12-24T21:15:11.123Z,3.33
2022-12-24T21:17:38.248Z,3.13
2022-12-24T21:20:05.969Z,3.38
2022-12-24T21:22:33.143Z,2.85
2022-12-24T21:25:00.298Z,3.47
2022-12-24T21:27:29.045Z,3.20
2022-12-24T21:29:56.212Z,3.10
2022-12-24T21:32:23.403Z,2.67
2022-12-24T21:34:50.682Z,3.05
2022-12-24T21:37:17.808Z,3.40
2022-12-24T21:39:44.925Z,2.90
2022-12-24T21:42:12.071Z,3.05
2022-12-24T21:44:39.272Z,3.15
2022-12-24T21:47:07.903Z,3.15
2022-12-24T21:49:53.743Z,3.33
2022-12-24T21:52:20.856Z,2.58
2022-12-24T21:54:48.037Z,3.00
2022-12-24T21:57:33.996Z,3.28
2022-12-24T22:00:21.156Z,3.42
2022-12-24T22:02:52.500Z,3.00
2022-12-24T22:05:20.176Z,3.42
2022-12-24T22:08:06.244Z,3.13
2022-12-24T22:10:52.244Z,2.42
2022-12-24T22:13:19.872Z,2.90
2022-12-24T22:15:48.322Z,2.80
2022-12-24T22:18:16.571Z,3.17
2022-12-24T22:20:44.787Z,2.70
2022-12-24T22:23:12.496Z,2.92
2022-12-24T22:25:40.016Z,3.97
2022-12-24T22:28:07.985Z,2.63
2022-12-24T22:30:39.324Z,2.70
2022-12-24T22:33:06.745Z,2.95
2022-12-24T22:35:33.992Z,2.45
2022-12-24T22:38:01.140Z,2.72
2022-12-24T22:40:28.887Z,2.60
2022-12-24T22:42:55.993Z,2.78
2022-12-24T22:45:23.151Z,2.53
2022-12-24T22:47:50.598Z,2.63
2022-12-24T22:50:17.809Z,2.88
2022-12-24T22:52:45.134Z,2.70
2022-12-24T22:55:12.327Z,3.10
2022-12-24T22:57:39.493Z,2.53
2022-12-24T23:00:12.157Z,2.50
2022-12-24T23:02:39.375Z,2.60
2022-12-24T23:05:06.769Z,2.80
2022-12-24T23:07:33.863Z,3.08
2022-12-24T23:10:01.063Z,3.10
2022-12-24T23:12:47.087Z,2.88
2022-12-24T23:15:14.212Z,2.70
2022-12-24T23:17:41.411Z,2.60
2022-12-24T23:20:08.954Z,2.85
2022-12-24T23:22:36.115Z,2.72
2022-12-24T23:25:03.870Z,2.60
2022-12-24T23:27:31.023Z,2.50
2022-12-24T23:29:58.265Z,2.90
2022-12-24T23:32:25.445Z,2.47
2022-12-24T23:34:52.760Z,2.42
2022-12-24T23:37:19.932Z,2.47
2022-12-24T23:39:47.042Z,2.13
2022-12-24T23:42:14.152Z,2.55
2022-12-24T23:44:41.458Z,2.30
2022-12-24T23:47:08.769Z,2.90
2022-12-24T23:49:36.033Z,2.53
2022-12-24T23:52:04.156Z,2.85
2022-12-24T23:54:31.311Z,1.95
2022-12-24T23:56:58.427Z,2.42
2022-12-24T23:59:25.538Z,2.40
